ENVAEVVA

Guest
Details From ENVA - Vaernes
To EVVA - VENTSPILS INTL
Flight Number -
Tags decoded
Created
Modified
Stats Distance 491 nm / 909 km
Max Altitude 0 ft / 0 m
Waypoints 7
Social Downloads 0
Likes 0
Share VATSIM

Download

Looking for another format? Having issues loading an existing format? Contact us
Advertisement - Login to hide

Notes

Requested: ENVA SOLKA N133 MAVIP OXOTI Y96 DEGAL L870 HMR L870 XILAN Y40 RASEL Y130 SOPUN L199 MILTA EVVA Unmatched points: N133 MAVIP OXOTI L870 L870 RASEL Y130 SOPUN L199

Route

ENVA SOLKA DEGAL HMR XILAN MILTA EVVA

ID Type Via Altitude Latitude Longitude Leg Dist Tot Dist Heading (true) Name
O ENVA APT - 0 ft / 0 m 63.45760˚ 10.91798˚ - 0 nm - Vaernes
SOLKA FIX - 0 ft / 0 m 63.33083˚ 12.05250˚ 31 nm 31 nm 104° / 105° -
DEGAL FIX - 0 ft / 0 m 60.63883˚ 17.95667˚ 231 nm 263 nm 132° / 137° -
HMR VOR - 0 ft / 0 m 60.27931˚ 18.39158˚ 25 nm 288 nm 149° / 149° HAMMAR VOR-DME
XILAN FIX - 0 ft / 0 m 59.65931˚ 19.07606˚ 42 nm 331 nm 151° / 151° -
MILTA FIX - 0 ft / 0 m 57.68806˚ 21.45528˚ 139 nm 470 nm 147° / 149° -
O EVVA APT - 0 ft / 0 m 57.35780˚ 21.54417˚ 20 nm 490 nm 172° / 172° VENTSPILS INTL

Altitude Profile

Advertisement - Login to hide

Weather


0- 5 10 15 20 25 30 35+ Temperature / ° C

Clouds and Precipitation
Forecast for 2018-05-22 12:00 UTC. Updated 5 hours ago

Ground ~20,000 ft ~40,000 ft Winds

ENVA

Details ICAO ENVA (TRD)
Name Vaernes
Region Norway
Timezone Europe/Oslo (UTC+2.0)
Stats Elevation 56 ft / 17 m (AMSL)
Location 63.457605° 10.917980°
Runways 1
Magnetic Variation 3.578° E

METAR

ENVA 221550Z 31010KT 9999 FEW013 BKN023 12/07 Q1025 NOSIG RMK WIND 670FT 32011KT

Decode

TAF

TAF AMD ENVA 221528Z 2215/2312 32010KT 9999 SCT015 BKN025 BECMG 2216/2218 VRB07KT

Decode

Departure Runways

ID Width Length Bearing (true) Bearing (mag) Surface Threshold Offset Overrun Length
09 148 ft / 45 m 9,356 ft / 2,852 m 90.21° 86.63° Asphalt 984 ft / 300 m 0 ft / 0 m
27 148 ft / 45 m 9,356 ft / 2,852 m 270.26° 266.68° Asphalt 689 ft / 210 m 0 ft / 0 m

EVVA

Details ICAO EVVA (VTS)
Name VENTSPILS INTL
Region Latvia
Timezone Europe/Riga (UTC+3.0)
Stats Elevation 19 ft / 6 m (AMSL)
Location 57.357800° 21.544165°
Runways 1
Magnetic Variation 7.024° E

METAR

EVVA 221550Z AUTO 35004KT CAVOK 16/10 Q1019

Decode

TAF

Not found

Destination Runways

ID Width Length Bearing (true) Bearing (mag) Surface Threshold Offset Overrun Length
03 105 ft / 32 m 4,251 ft / 1,296 m 35.42° 28.40° Asphalt 0 ft / 0 m 0 ft / 0 m
21 105 ft / 32 m 4,251 ft / 1,296 m 215.43° 208.41° Asphalt 0 ft / 0 m 0 ft / 0 m

Popular Alternatives